Time;durP1;ratioP1;P1;durP2;ratioP2;P2;SDS_P1;SDS_P2;PMS_P1;PMS_P2;Temp;Humidity;BMP_temperature;BMP_pressure;BME280_temperature;BME280_humidity;BME280_pressure;Samples;Min_cycle;Max_cycle;Signal;HPM_P1;HPM_P2
2023/01/27 00:00:14;;;;;;;29.05;9.52;;;;;;;-3.59;100.00;98950.13;4204342;28;20037;-75
2023/01/27 00:02:14;;;;;;;24.58;9.40;;;;;;;-3.55;100.00;98951.22;4204014;28;20035;-75
2023/01/27 00:04:15;;;;;;;31.17;9.77;;;;;;;-3.54;100.00;98944.72;4203983;28;20230;-75
2023/01/27 00:06:15;;;;;;;33.55;10.35;;;;;;;-3.53;100.00;98942.84;4204295;28;20071;-74
2023/01/27 00:08:16;;;;;;;24.38;8.55;;;;;;;-3.56;100.00;98935.25;4204252;28;20028;-74
2023/01/27 00:10:19;;;;;;;29.60;9.60;;;;;;;-3.54;100.00;98935.81;4204215;28;20035;-74
2023/01/27 00:14:41;;;;;;;29.50;10.73;;;;;;;-3.55;100.00;98937.69;4220455;28;20045;-74
2023/01/27 00:16:41;;;;;;;25.38;9.43;;;;;;;-3.53;100.00;98945.53;4217467;27;20476;-75
2023/01/27 00:18:42;;;;;;;23.40;7.60;;;;;;;-3.52;100.00;98939.84;4209335;28;20407;-74
2023/01/27 00:25:20;;;;;;;25.55;9.48;;;;;;;-3.50;100.00;98940.38;4210704;28;20054;-74
2023/01/27 00:27:20;;;;;;;28.70;9.45;;;;;;;-3.49;100.00;98936.59;4203528;28;20551;-74
2023/01/27 00:29:21;;;;;;;24.80;8.75;;;;;;;-3.49;100.00;98933.88;4203880;28;20051;-74
2023/01/27 00:33:48;;;;;;;31.50;9.18;;;;;;;-3.48;100.00;98935.50;4206055;28;20055;-74
2023/01/27 00:35:48;;;;;;;34.67;9.77;;;;;;;-3.45;100.00;98937.66;4219511;28;20820;-74
2023/01/27 00:37:48;;;;;;;26.85;9.25;;;;;;;-3.46;100.00;98932.53;4217905;28;20470;-75
2023/01/27 00:39:49;;;;;;;21.58;8.55;;;;;;;-3.47;100.00;98923.63;4219022;28;20075;-75
2023/01/27 00:41:49;;;;;;;21.40;7.90;;;;;;;-3.45;100.00;98932.25;4218607;28;20035;-75
2023/01/27 00:43:52;;;;;;;30.95;9.23;;;;;;;-3.38;100.00;98939.28;4218716;28;20488;-75
2023/01/27 00:45:52;;;;;;;23.35;8.70;;;;;;;-3.41;100.00;98936.00;4205670;28;20511;-74
2023/01/27 00:47:53;;;;;;;27.58;8.93;;;;;;;-3.41;100.00;98940.63;4204040;28;20180;-74
2023/01/27 00:49:54;;;;;;;29.80;10.00;;;;;;;-3.40;100.00;98939.53;4204079;28;20040;-75
2023/01/27 00:51:54;;;;;;;25.10;9.30;;;;;;;-3.41;100.00;98937.91;4203302;28;20121;-74
2023/01/27 00:53:55;;;;;;;27.00;9.50;;;;;;;-3.36;100.00;98937.09;4208285;28;20552;-74
2023/01/27 00:55:57;;;;;;;23.58;8.82;;;;;;;-3.36;100.00;98940.63;4213792;27;20068;-74
2023/01/27 00:57:57;;;;;;;29.20;9.15;;;;;;;-3.37;100.00;98941.69;4203729;28;20055;-74
2023/01/27 00:59:57;;;;;;;25.45;9.13;;;;;;;-3.35;100.00;98942.22;4215713;28;20352;-74
2023/01/27 01:01:57;;;;;;;24.40;9.30;;;;;;;-3.33;100.00;98941.94;4215341;28;20044;-75
2023/01/27 01:03:58;;;;;;;21.67;8.90;;;;;;;-3.36;100.00;98943.31;4209445;28;20131;-74
2023/01/27 01:06:01;;;;;;;25.70;8.55;;;;;;;-3.33;100.00;98928.41;4205605;28;20039;-75
2023/01/27 01:08:01;;;;;;;23.75;9.10;;;;;;;-3.32;100.00;98938.97;4209948;28;20048;-75
2023/01/27 01:10:02;;;;;;;23.20;8.98;;;;;;;-3.32;100.00;98943.56;4211416;28;20112;-75
2023/01/27 01:12:02;;;;;;;28.83;9.50;;;;;;;-3.28;100.00;98939.25;4205650;28;20020;-74
2023/01/27 01:14:02;;;;;;;26.92;8.55;;;;;;;-3.30;100.00;98934.09;4205609;28;20036;-74
2023/01/27 01:16:12;;;;;;;21.58;8.60;;;;;;;-3.28;100.00;98944.66;4207595;28;20074;-75
2023/01/27 01:18:13;;;;;;;23.02;8.82;;;;;;;-3.28;100.00;98936.53;4210387;28;20028;-74
2023/01/27 01:20:13;;;;;;;34.58;10.75;;;;;;;-3.28;100.00;98940.03;4210164;28;20089;-75
2023/01/27 01:22:13;;;;;;;29.23;10.45;;;;;;;-3.24;100.00;98948.41;4208285;28;20035;-75
2023/01/27 01:24:14;;;;;;;29.27;10.48;;;;;;;-3.27;100.00;98947.06;4202508;28;20189;-74
2023/01/27 01:26:16;;;;;;;28.98;10.10;;;;;;;-3.26;100.00;98935.16;4205744;28;20073;-75
2023/01/27 01:28:16;;;;;;;26.67;9.13;;;;;;;-3.28;100.00;98934.63;4208557;28;20119;-75
2023/01/27 01:30:17;;;;;;;31.00;9.70;;;;;;;-3.28;100.00;98934.63;4213286;28;20795;-75
2023/01/27 01:32:17;;;;;;;24.15;8.82;;;;;;;-3.26;100.00;98937.88;4212664;28;20127;-75
2023/01/27 01:34:17;;;;;;;28.55;9.60;;;;;;;-3.26;100.00;98939.75;4202568;28;20523;-74
2023/01/27 01:36:20;;;;;;;28.15;10.20;;;;;;;-3.25;100.00;98935.97;4202674;28;20081;-75
2023/01/27 01:38:20;;;;;;;30.13;10.18;;;;;;;-3.24;100.00;98938.41;4205198;28;20126;-74
2023/01/27 01:40:21;;;;;;;23.23;10.50;;;;;;;-3.25;100.00;98938.69;4217952;28;20439;-74
2023/01/27 01:42:22;;;;;;;30.73;10.57;;;;;;;-3.25;100.00;98933.25;4217505;28;20039;-74
2023/01/27 01:44:25;;;;;;;28.77;10.00;;;;;;;-3.24;100.00;98934.88;4211874;28;20439;-75
2023/01/27 01:46:25;;;;;;;29.83;10.68;;;;;;;-3.25;100.00;98935.97;4202950;28;20039;-74
2023/01/27 01:48:52;;;;;;;30.88;11.55;;;;;;;-3.23;100.00;98939.19;4202583;28;20047;-75
2023/01/27 01:51:01;;;;;;;35.50;12.00;;;;;;;-3.23;100.00;98931.88;4202369;28;20080;-75
2023/01/27 01:53:05;;;;;;;31.55;10.75;;;;;;;-3.16;100.00;98937.81;4204531;28;20507;-74
2023/01/27 01:55:06;;;;;;;29.27;11.15;;;;;;;-3.14;100.00;98934.88;4212013;28;20051;-74
2023/01/27 01:57:15;;;;;;;32.55;11.13;;;;;;;-3.16;100.00;98932.41;4211422;28;20105;-74
2023/01/27 01:59:20;;;;;;;36.95;10.95;;;;;;;-3.19;100.00;98940.28;4201924;28;20544;-74
2023/01/27 02:01:20;;;;;;;36.75;11.60;;;;;;;-3.21;100.00;98934.34;4203375;28;20051;-74
2023/01/27 02:03:24;;;;;;;41.53;13.05;;;;;;;-3.17;100.00;98936.22;4216695;28;20078;-74
2023/01/27 02:05:39;;;;;;;39.20;12.75;;;;;;;-3.19;100.00;98945.69;4218064;28;20082;-74
2023/01/27 02:08:00;;;;;;;45.83;14.32;;;;;;;-3.16;100.00;98945.13;4213417;28;20516;-74
2023/01/27 02:10:01;;;;;;;50.38;14.52;;;;;;;-3.16;100.00;98937.81;4201563;28;20114;-74
2023/01/27 02:12:02;;;;;;;48.03;14.63;;;;;;;-3.15;100.00;98946.75;4208914;28;20134;-74
2023/01/27 02:14:02;;;;;;;56.33;18.08;;;;;;;-3.16;100.00;98932.41;4217183;28;20036;-74
2023/01/27 02:16:03;;;;;;;71.78;22.65;;;;;;;-3.15;100.00;98935.91;4208410;28;20479;-75
2023/01/27 02:18:04;;;;;;;48.90;16.08;;;;;;;-3.13;100.00;98933.78;4202527;28;20036;-75
2023/01/27 02:20:20;;;;;;;48.45;14.55;;;;;;;-3.10;100.00;98935.91;4205977;28;20475;-75
2023/01/27 02:22:42;;;;;;;51.75;16.33;;;;;;;-3.07;100.00;98927.22;4204350;28;20147;-75
2023/01/27 02:24:49;;;;;;;48.45;14.63;;;;;;;-3.08;100.00;98933.72;4205262;28;20356;-74
2023/01/27 02:26:50;;;;;;;47.25;14.50;;;;;;;-3.10;100.00;98933.22;4215172;28;20055;-75
2023/01/27 02:29:01;;;;;;;34.75;11.05;;;;;;;-3.07;100.00;98940.75;4210705;28;20043;-74
2023/01/27 02:31:01;;;;;;;31.92;11.73;;;;;;;-3.08;100.00;98938.34;4216707;28;20047;-74
2023/01/27 02:33:01;;;;;;;43.38;12.93;;;;;;;-3.03;100.00;98946.44;4204534;28;20075;-74
2023/01/27 02:35:04;;;;;;;40.70;13.20;;;;;;;-3.05;100.00;98946.72;4209117;28;20055;-74
2023/01/27 02:37:08;;;;;;;36.38;10.65;;;;;;;-3.09;100.00;98942.94;4215647;28;20308;-75
2023/01/27 02:39:10;;;;;;;42.10;11.60;;;;;;;-3.09;100.00;98942.94;4205387;28;20136;-74
2023/01/27 02:41:17;;;;;;;47.13;15.55;;;;;;;-3.05;100.00;98937.81;4211254;28;20074;-74
2023/01/27 02:43:17;;;;;;;35.33;11.52;;;;;;;-3.07;100.00;98940.75;4207518;28;20762;-74
2023/01/27 02:45:17;;;;;;;33.95;11.48;;;;;;;-3.05;100.00;98946.72;4205263;28;20032;-74
2023/01/27 02:47:18;;;;;;;31.17;10.68;;;;;;;-3.05;100.00;98944.03;4205427;28;20040;-74
2023/01/27 02:49:18;;;;;;;30.48;10.70;;;;;;;-3.03;100.00;98947.25;4205510;28;20055;-74
2023/01/27 02:51:19;;;;;;;41.63;11.00;;;;;;;-3.04;100.00;98942.13;4205508;28;20388;-74
2023/01/27 02:53:19;;;;;;;29.65;10.07;;;;;;;-3.03;100.00;98944.53;4204598;28;20516;-74
2023/01/27 02:55:19;;;;;;;30.45;9.32;;;;;;;-3.04;100.00;98940.22;4205364;28;20050;-74
2023/01/27 02:57:20;;;;;;;34.55;10.80;;;;;;;-3.02;100.00;98943.44;4205533;28;20048;-74
2023/01/27 02:59:20;;;;;;;36.25;10.98;;;;;;;-3.01;100.00;98939.66;4215795;28;20047;-75
2023/01/27 03:01:21;;;;;;;31.83;10.27;;;;;;;-3.00;100.00;98941.28;4204751;28;20508;-74
2023/01/27 03:03:21;;;;;;;26.77;9.95;;;;;;;-2.97;100.00;98940.75;4211779;28;20387;-74
2023/01/27 03:05:21;;;;;;;25.77;9.80;;;;;;;-2.97;100.00;98938.03;4212919;28;20044;-75
2023/01/27 03:07:22;;;;;;;29.88;10.80;;;;;;;-2.94;100.00;98944.78;4220718;28;20048;-74
2023/01/27 03:09:23;;;;;;;29.50;10.05;;;;;;;-2.96;100.00;98953.19;4218444;28;20059;-74
2023/01/27 03:13:42;;;;;;;31.13;9.95;;;;;;;-2.94;100.00;98951.00;4204215;28;20098;-74
2023/01/27 03:18:12;;;;;;;30.08;11.30;;;;;;;-2.93;100.00;98958.03;4221166;28;20065;-74
2023/01/27 03:20:12;;;;;;;31.70;11.38;;;;;;;-2.90;100.00;98959.38;4211045;28;20028;-74
2023/01/27 03:22:13;;;;;;;32.17;10.68;;;;;;;-2.90;100.00;98960.16;4204590;28;20460;-74
2023/01/27 03:24:13;;;;;;;25.35;9.82;;;;;;;-2.91;100.00;98955.84;4204679;28;20028;-75
2023/01/27 03:26:14;;;;;;;30.08;10.95;;;;;;;-2.86;100.00;98963.97;4220869;28;20031;-74
2023/01/27 03:28:14;;;;;;;35.20;11.65;;;;;;;-2.87;100.00;98961.53;4219003;28;20031;-74
2023/01/27 03:30:14;;;;;;;31.00;10.05;;;;;;;-2.87;100.00;98961.53;4204640;28;20034;-75
2023/01/27 03:32:15;;;;;;;29.42;9.52;;;;;;;-2.89;100.00;98964.53;4205193;28;20030;-75
2023/01/27 03:34:15;;;;;;;26.30;9.48;;;;;;;-2.87;100.00;98964.25;4211607;28;20089;-75
2023/01/27 03:47:51;;;;;;;25.05;9.60;;;;;;;-2.84;100.00;98966.38;4204925;28;20445;-74
2023/01/27 03:49:51;;;;;;;33.13;10.13;;;;;;;-2.84;100.00;98980.72;4204654;28;20348;-75
2023/01/27 03:51:51;;;;;;;27.20;8.48;;;;;;;-2.85;100.00;98970.19;4203439;28;20201;-74
2023/01/27 03:53:52;;;;;;;27.15;8.90;;;;;;;-2.84;100.00;98975.31;4203644;28;20572;-74
2023/01/27 03:55:52;;;;;;;30.80;10.60;;;;;;;-2.83;100.00;98984.25;4204434;28;20131;-75
2023/01/27 03:57:53;;;;;;;29.10;9.93;;;;;;;-2.83;100.00;98976.94;4204569;28;20071;-74
2023/01/27 03:59:53;;;;;;;23.10;8.45;;;;;;;-2.84;100.00;98980.72;4203911;28;20174;-74
2023/01/27 04:06:54;;;;;;;19.60;8.50;;;;;;;-2.81;100.00;98971.25;4202502;28;20047;-75
2023/01/27 04:08:54;;;;;;;21.17;7.20;;;;;;;-2.81;100.00;98971.25;4205833;28;20047;-75
2023/01/27 04:13:21;;;;;;;19.00;7.00;;;;;;;-2.71;100.00;98973.91;4206165;28;20417;-74
2023/01/27 04:15:22;;;;;;;;;;;;;;;-2.72;100.00;98977.72;4205564;28;20199;-74
2023/01/27 04:17:22;;;;;;;21.95;7.57;;;;;;;-2.73;100.00;98977.97;4204617;28;20026;-74
2023/01/27 04:19:23;;;;;;;20.83;8.02;;;;;;;-2.72;100.00;98983.13;4205698;28;20496;-74
2023/01/27 04:21:26;;;;;;;20.45;7.32;;;;;;;-2.74;100.00;98976.34;4205956;28;20096;-74
2023/01/27 04:23:27;;;;;;;21.25;7.38;;;;;;;-2.74;100.00;98974.44;4206474;28;20032;-74
2023/01/27 04:25:27;;;;;;;19.80;6.30;;;;;;;-2.75;100.00;98969.31;4209594;28;20135;-74
2023/01/27 04:27:28;;;;;;;18.92;5.60;;;;;;;-2.72;100.00;98977.72;4209628;28;20630;-74
2023/01/27 04:29:31;;;;;;;14.95;5.50;;;;;;;-2.72;100.00;98976.91;4206635;28;20043;-74
2023/01/27 04:31:31;;;;;;;14.60;6.47;;;;;;;-2.69;100.00;98979.84;4207445;28;20051;-74
2023/01/27 04:33:32;;;;;;;15.50;7.05;;;;;;;-2.69;100.00;98974.44;4209372;27;20043;-74
2023/01/27 04:35:32;;;;;;;18.27;7.68;;;;;;;-2.65;100.00;98974.66;4203463;28;20052;-74
2023/01/27 04:37:32;;;;;;;18.10;7.60;;;;;;;-2.65;100.00;98983.63;4209185;28;20036;-74
2023/01/27 04:39:34;;;;;;;16.02;6.25;;;;;;;-2.60;100.00;98980.88;4209680;28;20089;-75
2023/01/27 04:41:35;;;;;;;12.68;5.85;;;;;;;-2.56;100.00;98981.97;4206060;28;20090;-74
2023/01/27 04:43:36;;;;;;;16.27;6.93;;;;;;;-2.59;100.00;98978.97;4206480;28;20177;-74
2023/01/27 04:45:36;;;;;;;15.68;5.93;;;;;;;-2.59;100.00;98987.09;4206080;28;20083;-74
2023/01/27 04:47:36;;;;;;;16.15;6.18;;;;;;;-2.59;100.00;98995.22;4204375;28;20044;-74
2023/01/27 04:49:36;;;;;;;13.63;5.18;;;;;;;-2.55;100.00;98999.03;4200063;28;20048;-74
2023/01/27 04:51:37;;;;;;;17.48;7.20;;;;;;;-2.53;100.00;98998.72;4208134;28;20667;-74
2023/01/27 04:53:37;;;;;;;17.17;7.45;;;;;;;-2.55;100.00;98999.81;4212700;28;20048;-74
2023/01/27 04:55:38;;;;;;;18.77;6.60;;;;;;;-2.55;100.00;99005.25;4211550;28;20047;-75
2023/01/27 04:57:38;;;;;;;17.77;6.15;;;;;;;-2.56;100.00;99003.63;4217625;28;20036;-75
2023/01/27 04:59:38;;;;;;;24.85;7.10;;;;;;;-2.52;100.00;99009.28;4215635;28;20641;-74
2023/01/27 05:01:38;;;;;;;20.88;7.75;;;;;;;-2.51;100.00;99008.19;4202009;28;20075;-74
2023/01/27 05:03:39;;;;;;;19.85;8.55;;;;;;;-2.46;100.00;99010.06;4213573;28;20461;-74
2023/01/27 05:05:39;;;;;;;17.67;6.93;;;;;;;-2.49;100.00;99008.72;4206057;28;20079;-75
2023/01/27 05:07:39;;;;;;;19.88;6.68;;;;;;;-2.48;100.00;99006.81;4209087;28;20058;-75
2023/01/27 05:09:40;;;;;;;18.13;6.25;;;;;;;-2.43;100.00;99014.94;4201971;28;20081;-75
2023/01/27 05:11:40;;;;;;;21.45;6.38;;;;;;;-2.45;100.00;99006.28;4197777;28;20415;-74
2023/01/27 05:13:40;;;;;;;16.35;6.13;;;;;;;-2.44;100.00;99008.69;4202665;28;20472;-74
2023/01/27 05:15:41;;;;;;;19.25;6.80;;;;;;;-2.43;100.00;99012.22;4205654;28;20500;-74
2023/01/27 05:17:41;;;;;;;18.70;7.63;;;;;;;-2.44;100.00;99019.53;4208032;28;20824;-74
2023/01/27 05:19:41;;;;;;;18.33;6.82;;;;;;;-2.43;100.00;99010.31;4207579;28;20091;-74
2023/01/27 05:21:42;;;;;;;19.50;7.10;;;;;;;-2.44;100.00;99013.31;4209389;28;20072;-74
2023/01/27 05:23:42;;;;;;;23.42;7.60;;;;;;;-2.37;100.00;99019.25;4204161;28;20117;-74
2023/01/27 05:25:43;;;;;;;18.02;6.05;;;;;;;-2.37;100.00;99011.09;4211865;28;20039;-75
2023/01/27 05:27:44;;;;;;;20.80;7.43;;;;;;;-2.36;100.00;99013.53;4217219;28;20044;-74
2023/01/27 05:29:44;;;;;;;19.35;6.95;;;;;;;-2.34;100.00;99010.53;4210814;28;20515;-74
2023/01/27 05:31:44;;;;;;;14.98;6.15;;;;;;;-2.35;100.00;99019.75;4206214;28;20312;-74
2023/01/27 05:33:46;;;;;;;17.63;7.18;;;;;;;-2.33;100.00;99012.97;4206639;28;20057;-74
2023/01/27 05:35:47;;;;;;;16.40;6.07;;;;;;;-2.34;100.00;99016.75;4204832;28;20075;-74
2023/01/27 05:37:47;;;;;;;14.15;5.40;;;;;;;-2.33;100.00;99018.38;4206961;28;20482;-74
2023/01/27 05:39:47;;;;;;;16.05;6.57;;;;;;;-2.29;100.00;99015.94;4214660;28;20067;-75
2023/01/27 05:41:48;;;;;;;14.48;5.70;;;;;;;-2.30;100.00;99025.97;4202852;28;20167;-74
2023/01/27 05:43:53;;;;;;;14.27;6.65;;;;;;;-2.30;100.00;99034.09;4202106;28;20915;-74
2023/01/27 05:46:04;;;;;;;18.83;6.45;;;;;;;-2.32;100.00;99030.03;4209310;28;20498;-74
2023/01/27 05:48:04;;;;;;;14.13;5.82;;;;;;;-2.27;100.00;99027.31;4201406;28;20104;-74
2023/01/27 05:50:05;;;;;;;12.82;5.32;;;;;;;-2.30;100.00;99030.59;4208825;28;20062;-74
2023/01/27 05:52:06;;;;;;;14.30;5.38;;;;;;;-2.30;100.00;99025.16;4218503;28;20638;-75
2023/01/27 05:54:07;;;;;;;15.13;5.90;;;;;;;-2.30;100.00;99025.16;4206339;28;20040;-74
2023/01/27 05:56:10;;;;;;;14.47;5.60;;;;;;;-2.27;100.00;99027.31;4217323;28;20141;-74
2023/01/27 05:58:10;;;;;;;11.32;4.88;;;;;;;-2.28;100.00;99022.97;4218862;28;20039;-74
2023/01/27 06:00:11;;;;;;;9.82;4.90;;;;;;;-2.27;100.00;99032.72;4210100;28;20411;-74
2023/01/27 06:02:14;;;;;;;10.57;4.43;;;;;;;-2.25;100.00;99027.81;4218380;28;20046;-74
2023/01/27 06:04:14;;;;;;;10.90;4.30;;;;;;;-2.23;100.00;99025.66;4207937;28;20024;-75
2023/01/27 06:06:18;;;;;;;8.73;3.50;;;;;;;-2.23;100.00;99027.53;4202907;28;20387;-74
2023/01/27 06:08:19;;;;;;;6.78;3.13;;;;;;;-2.25;100.00;99025.09;4202807;28;20031;-74
2023/01/27 06:10:19;;;;;;;10.95;3.90;;;;;;;-2.21;100.00;99022.66;4217983;28;20077;-75
2023/01/27 06:12:20;;;;;;;6.18;3.30;;;;;;;-2.23;100.00;99022.94;4218036;28;20336;-74
2023/01/27 06:14:20;;;;;;;6.03;2.88;;;;;;;-2.23;100.00;99022.13;4211798;28;20633;-74
2023/01/27 06:16:22;;;;;;;6.15;2.67;;;;;;;-2.22;100.00;99024.56;4209359;28;20106;-74
2023/01/27 06:18:23;;;;;;;5.88;3.40;;;;;;;-2.23;100.00;99027.53;4206968;28;20431;-74
2023/01/27 06:20:24;;;;;;;4.10;2.67;;;;;;;-2.21;100.00;99037.03;4221015;28;20110;-75
2023/01/27 06:22:24;;;;;;;4.63;3.03;;;;;;;-2.20;100.00;99040.53;4220661;28;20472;-74
2023/01/27 06:24:24;;;;;;;3.83;2.33;;;;;;;-2.18;100.00;99044.59;4208944;28;20048;-74
2023/01/27 06:26:25;;;;;;;4.20;2.58;;;;;;;-2.21;100.00;99037.03;4205375;28;20318;-74
2023/01/27 06:28:25;;;;;;;5.43;2.92;;;;;;;-2.20;100.00;99037.84;4206529;28;20044;-74
2023/01/27 06:30:25;;;;;;;6.22;2.65;;;;;;;-2.21;100.00;99036.22;4208139;28;20048;-75
2023/01/27 06:32:26;;;;;;;5.13;3.25;;;;;;;-2.20;100.00;99040.53;4205291;28;20036;-75
2023/01/27 06:34:26;;;;;;;7.28;3.58;;;;;;;-2.19;100.00;99050.28;4205880;28;20488;-74
2023/01/27 06:36:26;;;;;;;5.18;2.83;;;;;;;-2.20;100.00;99040.53;4205210;28;20042;-74
2023/01/27 06:38:27;;;;;;;9.73;3.17;;;;;;;-2.23;100.00;99036.50;4205554;28;20101;-74
2023/01/27 06:40:29;;;;;;;7.35;2.97;;;;;;;-2.21;100.00;99042.44;4206180;28;20445;-74
2023/01/27 06:42:29;;;;;;;5.57;2.58;;;;;;;-2.23;100.00;99039.22;4205889;28;20146;-74
2023/01/27 06:44:30;;;;;;;6.35;3.25;;;;;;;-2.21;100.00;99044.34;4221734;28;20069;-74
2023/01/27 06:46:30;;;;;;;6.18;3.38;;;;;;;-2.22;100.00;99043.53;4216201;28;20253;-75
2023/01/27 06:48:30;;;;;;;5.90;3.10;;;;;;;-2.17;100.00;99053.53;4214524;28;20199;-74
2023/01/27 06:50:31;;;;;;;6.82;3.35;;;;;;;-2.14;100.00;99061.13;4221265;28;20122;-75
2023/01/27 06:52:31;;;;;;;8.45;3.80;;;;;;;-2.18;100.00;99052.72;4215635;28;20472;-74
2023/01/27 06:54:32;;;;;;;7.82;3.63;;;;;;;-2.17;100.00;99057.06;4220053;28;20387;-74
2023/01/27 06:56:32;;;;;;;9.30;4.60;;;;;;;-2.18;100.00;99066.28;4217509;28;20096;-74
2023/01/27 06:58:32;;;;;;;7.47;3.47;;;;;;;-2.16;100.00;99066.00;4210693;28;20437;-74
2023/01/27 07:00:34;;;;;;;6.32;2.95;;;;;;;-2.20;100.00;99064.94;4204992;28;20386;-75
2023/01/27 07:02:34;;;;;;;9.15;3.97;;;;;;;-2.21;100.00;99069.56;4206132;28;20127;-74
2023/01/27 07:04:34;;;;;;;11.65;4.07;;;;;;;-2.19;100.00;99077.41;4205405;28;20071;-75
2023/01/27 07:06:34;;;;;;;7.80;3.72;;;;;;;-2.19;100.00;99070.09;4204847;28;20122;-75
2023/01/27 07:08:35;;;;;;;8.00;3.17;;;;;;;-2.19;100.00;99074.69;4205657;28;20040;-74
2023/01/27 07:10:35;;;;;;;7.72;3.88;;;;;;;-2.14;100.00;99082.81;4205192;28;20079;-74
2023/01/27 07:12:37;;;;;;;4.78;3.00;;;;;;;-2.17;100.00;99073.31;4204638;28;20210;-74
2023/01/27 07:14:37;;;;;;;7.60;3.60;;;;;;;-2.10;100.00;99083.84;4205142;28;20105;-74
2023/01/27 07:16:37;;;;;;;7.93;3.33;;;;;;;-2.16;100.00;99071.41;4212838;28;20040;-74
2023/01/27 07:18:38;;;;;;;5.65;3.80;;;;;;;-2.17;100.00;99070.59;4221206;28;20043;-75
2023/01/27 07:20:39;;;;;;;6.95;3.63;;;;;;;-2.17;100.00;99080.63;4219340;28;20034;-75
2023/01/27 07:22:39;;;;;;;8.75;3.83;;;;;;;-2.17;100.00;99080.63;4211528;28;20040;-74
2023/01/27 07:24:39;;;;;;;6.60;3.60;;;;;;;-2.15;100.00;99089.28;4219767;27;20135;-74
2023/01/27 07:26:40;;;;;;;6.90;3.00;;;;;;;-2.16;100.00;99087.69;4218660;28;20118;-74
2023/01/27 07:28:40;;;;;;;8.32;3.75;;;;;;;-2.14;100.00;99091.75;4219601;28;20050;-74
2023/01/27 07:30:42;;;;;;;8.65;3.63;;;;;;;-2.14;100.00;99088.22;4219918;28;20047;-74
2023/01/27 07:32:42;;;;;;;6.90;3.53;;;;;;;-2.12;100.00;99089.56;4220266;28;20150;-74
2023/01/27 07:34:42;;;;;;;6.80;3.67;;;;;;;-2.11;100.00;99093.09;4219688;27;20067;-74
2023/01/27 07:36:43;;;;;;;6.10;3.70;;;;;;;-2.11;100.00;99102.03;4215597;28;20064;-74
2023/01/27 07:38:43;;;;;;;6.38;2.95;;;;;;;-2.09;100.00;99090.91;4204756;28;20052;-74
2023/01/27 07:40:43;;;;;;;10.50;4.25;;;;;;;-2.12;100.00;99084.16;4210644;28;20047;-74
2023/01/27 07:42:44;;;;;;;9.15;3.67;;;;;;;-2.09;100.00;99099.03;4219150;28;20035;-74
2023/01/27 07:44:44;;;;;;;8.43;3.85;;;;;;;-2.08;100.00;99097.94;4218981;28;20058;-74
2023/01/27 07:46:44;;;;;;;9.52;4.35;;;;;;;-2.08;100.00;99097.94;4205069;28;20048;-74
2023/01/27 07:48:45;;;;;;;10.02;4.18;;;;;;;-2.09;100.00;99101.75;4217460;28;20047;-74
2023/01/27 07:50:45;;;;;;;6.38;3.70;;;;;;;-2.10;100.00;99106.34;4217545;28;20135;-74
2023/01/27 07:52:45;;;;;;;10.48;5.40;;;;;;;-2.08;100.00;99106.88;4203886;28;20050;-74
2023/01/27 07:54:45;;;;;;;9.05;4.53;;;;;;;-2.08;100.00;99111.50;4204546;28;20046;-74
2023/01/27 07:56:46;;;;;;;10.05;4.68;;;;;;;-2.08;100.00;99111.50;4215349;28;20468;-75
2023/01/27 07:58:46;;;;;;;10.13;4.82;;;;;;;-2.08;100.00;99119.63;4209585;28;20051;-74
2023/01/27 08:00:46;;;;;;;11.52;6.05;;;;;;;-2.10;100.00;99119.91;4204856;28;20044;-74
2023/01/27 08:02:51;;;;;;;12.25;5.95;;;;;;;-2.07;100.00;99118.53;4203555;28;20104;-74
2023/01/27 08:04:51;;;;;;;11.68;6.20;;;;;;;-2.08;100.00;99125.84;4204231;28;20058;-74
2023/01/27 08:06:51;;;;;;;11.48;5.88;;;;;;;-2.05;100.00;99132.66;4207038;28;20036;-75
2023/01/27 08:08:52;;;;;;;10.23;5.32;;;;;;;-2.07;100.00;99132.94;4204484;28;20202;-74
2023/01/27 08:10:53;;;;;;;9.07;5.15;;;;;;;-2.05;100.00;99141.59;4203967;28;20132;-74
2023/01/27 08:12:53;;;;;;;7.55;4.47;;;;;;;-2.04;100.00;99137.78;4210669;27;20462;-74
2023/01/27 08:14:53;;;;;;;8.82;4.88;;;;;;;-2.04;100.00;99126.94;4219235;28;20125;-74
2023/01/27 08:16:54;;;;;;;11.52;5.22;;;;;;;-2.04;100.00;99142.41;4211208;28;20071;-74
2023/01/27 08:18:54;;;;;;;12.05;5.88;;;;;;;-2.04;100.00;99132.38;4219072;27;20878;-74
2023/01/27 08:20:58;;;;;;;11.35;6.05;;;;;;;-2.02;100.00;99140.22;4219545;28;20136;-75
2023/01/27 08:22:59;;;;;;;11.32;5.72;;;;;;;-2.02;100.00;99134.78;4203524;28;20536;-74
2023/01/27 08:24:59;;;;;;;13.50;6.80;;;;;;;-2.01;100.00;99133.69;4213778;28;20138;-74
2023/01/27 08:26:59;;;;;;;15.93;7.25;;;;;;;-1.98;100.00;99136.69;4215024;28;20119;-75
2023/01/27 08:29:00;;;;;;;15.65;7.07;;;;;;;-1.98;100.00;99139.38;4203753;28;20518;-74
2023/01/27 08:31:10;;;;;;;16.15;7.70;;;;;;;-1.96;100.00;99144.53;4215362;28;20127;-74
2023/01/27 08:33:10;;;;;;;11.75;5.78;;;;;;;-1.91;100.00;99149.91;4218418;28;20433;-75
2023/01/27 08:35:10;;;;;;;10.07;5.28;;;;;;;-1.89;100.00;99149.66;4218710;28;20044;-74
2023/01/27 08:37:11;;;;;;;11.13;5.20;;;;;;;-1.86;100.00;99149.88;4218849;27;20487;-75
2023/01/27 08:39:11;;;;;;;10.55;5.03;;;;;;;-1.80;100.00;99159.63;4215685;28;20044;-75
2023/01/27 08:41:14;;;;;;;11.30;7.32;;;;;;;-1.81;100.00;99151.78;4203434;28;20475;-74
2023/01/27 08:43:15;;;;;;;13.73;6.78;;;;;;;-1.78;100.00;99153.91;4203036;28;20047;-74
2023/01/27 08:45:15;;;;;;;14.73;6.55;;;;;;;-1.76;100.00;99157.97;4211518;28;20043;-74
2023/01/27 08:47:16;;;;;;;10.43;5.43;;;;;;;-1.73;100.00;99157.41;4219037;28;20440;-74
2023/01/27 08:49:16;;;;;;;13.50;5.60;;;;;;;-1.74;100.00;99157.66;4213477;28;20138;-74
2023/01/27 08:51:16;;;;;;;11.77;5.32;;;;;;;-1.71;100.00;99160.66;4203642;28;20488;-74
2023/01/27 08:53:17;;;;;;;9.45;5.15;;;;;;;-1.68;100.00;99156.56;4202953;28;20412;-75
2023/01/27 08:55:17;;;;;;;8.63;4.90;;;;;;;-1.62;100.00;99158.16;4203614;28;20485;-74
2023/01/27 08:57:17;;;;;;;10.82;5.05;;;;;;;-1.61;100.00;99159.78;4203002;28;20048;-75
2023/01/27 08:59:18;;;;;;;13.70;5.20;;;;;;;-1.56;100.00;99161.66;4207338;28;20047;-74
2023/01/27 09:01:19;;;;;;;11.13;5.90;;;;;;;-1.52;100.00;99165.41;4203645;28;20123;-75
2023/01/27 09:03:20;;;;;;;9.70;5.40;;;;;;;-1.45;100.00;99164.00;4202534;28;20040;-75
2023/01/27 09:05:21;;;;;;;9.73;4.90;;;;;;;-1.36;100.00;99155.25;4218917;28;20066;-74
2023/01/27 09:07:21;;;;;;;10.90;4.90;;;;;;;-1.30;100.00;99162.28;4218410;28;20047;-75
2023/01/27 09:09:21;;;;;;;10.15;5.13;;;;;;;-1.20;100.00;99160.28;4218188;28;20040;-75
2023/01/27 09:11:22;;;;;;;11.15;6.30;;;;;;;-1.11;100.00;99171.34;4218158;28;20391;-74
2023/01/27 09:13:22;;;;;;;11.63;5.70;;;;;;;-1.09;100.00;99176.47;4205802;28;20047;-74
2023/01/27 09:15:23;;;;;;;10.68;5.03;;;;;;;-1.07;100.00;99172.41;4214700;28;20036;-74
2023/01/27 09:17:24;;;;;;;11.10;5.15;;;;;;;-1.10;100.00;99166.72;4203158;28;20044;-75
2023/01/27 09:19:24;;;;;;;10.05;5.57;;;;;;;-1.12;100.00;99175.16;4212340;28;20043;-75
2023/01/27 09:21:25;;;;;;;10.55;6.30;;;;;;;-1.10;100.00;99180.28;4205465;28;20097;-74
2023/01/27 09:23:25;;;;;;;9.07;5.20;;;;;;;-1.09;100.00;99181.91;4202316;28;20040;-75
2023/01/27 09:25:26;;;;;;;9.38;5.65;;;;;;;-1.14;100.00;99178.16;4209391;28;20068;-74
2023/01/27 09:27:27;;;;;;;9.25;5.05;;;;;;;-1.17;100.00;99178.72;4216464;28;20085;-74
2023/01/27 09:29:28;;;;;;;11.13;4.72;;;;;;;-1.20;100.00;99181.19;4203423;28;20040;-74
2023/01/27 09:31:29;;;;;;;8.77;4.20;;;;;;;-1.20;100.00;99181.19;4217493;28;20042;-74
2023/01/27 09:33:29;;;;;;;12.25;6.40;;;;;;;-1.23;100.00;99179.06;4210992;28;20040;-75
2023/01/27 09:35:37;;;;;;;9.98;4.80;;;;;;;-1.22;100.00;99167.09;4218414;28;20051;-75
2023/01/27 09:37:53;;;;;;;11.15;4.80;;;;;;;-1.20;100.00;99175.75;4205290;28;20067;-75
2023/01/27 09:40:00;;;;;;;10.93;5.53;;;;;;;-1.16;100.00;99180.34;4217383;27;20036;-75
2023/01/27 09:42:16;;;;;;;12.27;5.82;;;;;;;-1.11;100.00;99174.06;4218221;28;20047;-75
2023/01/27 09:44:54;;;;;;;9.93;5.05;;;;;;;-1.06;100.00;99170.50;4201121;28;20044;-75
2023/01/27 09:47:00;;;;;;;9.95;5.05;;;;;;;-1.05;100.00;99172.13;4202955;28;20513;-75
2023/01/27 09:49:25;;;;;;;7.53;4.65;;;;;;;-1.00;100.00;99172.06;4201871;28;20076;-74
2023/01/27 09:51:54;;;;;;;10.98;5.95;;;;;;;-1.01;100.00;99179.41;4203128;28;20615;-75